Pechora, Russia
Current Conditions -  °F | °C
As of 9:30 AM on Friday 19 Dec 2014 (Local Time) from UUYY Reporting Station
Overcast Overcast  
Wind Chill: 22°   Ceiling: 2600
Heat Index: 30°   Visibility: 4mi
Dew Point: 23°   Wind: 9mph
Humidity: 75%   Direction: 230°SW
Pressure: 29.62"   Gusts: 16mph
Location:  65.15°N, 57.21°E
Report Text: UUYY 190630Z 23004G07MPS 7000 BKN026CB OVC066 M01/M05 Q1003 TEMPO 0700 +SHSN 19590539 RMK QFE744/0992
Loading
Personal Weather Stations






























Interactive Weather Map New forecast layout! Learn more

10-Day Weather Forecast

Advertisements
Track Severe Weather on mobile